Time;durP1;ratioP1;P1;durP2;ratioP2;P2;SDS_P1;SDS_P2;PMS_P1;PMS_P2;Temp;Humidity;BMP_temperature;BMP_pressure;BME280_temperature;BME280_humidity;BME280_pressure;Samples;Min_cycle;Max_cycle;Signal;HPM_P1;HPM_P2
2021/09/15 00:00:20;;;;;;;4.30;3.70;;;20.20;99.90;;;;;;1918026;73;21514;-79
2021/09/15 00:02:46;;;;;;;4.30;3.85;;;20.20;99.90;;;;;;1918071;75;21608;-79
2021/09/15 00:05:13;;;;;;;4.92;3.60;;;20.20;99.90;;;;;;1918038;74;21124;-79
2021/09/15 00:07:39;;;;;;;5.15;4.25;;;20.20;99.90;;;;;;1917997;75;21121;-79
2021/09/15 00:10:05;;;;;;;8.50;3.95;;;20.10;99.90;;;;;;1918011;75;21044;-79
2021/09/15 00:12:31;;;;;;;7.05;4.12;;;20.10;99.90;;;;;;1918087;75;21062;-79
2021/09/15 00:14:57;;;;;;;8.88;4.70;;;20.10;99.90;;;;;;1917986;73;21128;-79
2021/09/15 00:17:23;;;;;;;9.85;4.80;;;20.00;99.90;;;;;;1918098;75;21067;-79
2021/09/15 00:19:49;;;;;;;7.25;4.40;;;20.10;99.90;;;;;;1917869;75;21136;-79
2021/09/15 00:22:15;;;;;;;5.20;4.37;;;20.10;99.90;;;;;;1918076;75;21066;-79
2021/09/15 00:24:42;;;;;;;5.03;4.25;;;20.00;99.90;;;;;;1917980;75;21104;-79
2021/09/15 00:27:08;;;;;;;6.87;4.33;;;20.00;99.90;;;;;;1918078;75;21039;-79
2021/09/15 00:29:34;;;;;;;6.17;4.37;;;20.00;99.90;;;;;;1917818;74;21128;-79
2021/09/15 00:32:00;;;;;;;5.03;4.47;;;20.00;99.90;;;;;;1917972;75;21062;-79
2021/09/15 00:34:30;;;;;;;6.50;4.53;;;20.10;99.90;;;;;;1917971;75;21110;-79
2021/09/15 00:36:54;;;;;;;5.70;4.22;;;20.10;99.90;;;;;;1918301;73;21059;-80
2021/09/15 00:39:20;;;;;;;10.15;4.45;;;20.00;99.90;;;;;;1918107;75;21066;-78
2021/09/15 00:41:46;;;;;;;4.97;4.47;;;20.10;99.90;;;;;;1917912;75;21113;-79
2021/09/15 00:44:14;;;;;;;4.85;4.35;;;20.20;99.90;;;;;;1918069;75;21066;-79
2021/09/15 00:46:40;;;;;;;8.48;4.97;;;20.10;99.90;;;;;;1918058;75;21563;-79
2021/09/15 00:49:06;;;;;;;4.58;4.12;;;20.00;99.90;;;;;;1917964;75;21565;-79
2021/09/15 00:51:32;;;;;;;9.35;4.42;;;20.00;99.90;;;;;;1917998;75;21520;-79
2021/09/15 00:53:58;;;;;;;5.65;4.60;;;20.00;99.90;;;;;;1917966;73;21535;-79
2021/09/15 00:56:24;;;;;;;5.10;4.55;;;20.10;99.90;;;;;;1918081;73;21458;-79
2021/09/15 00:58:51;;;;;;;5.55;4.10;;;20.10;99.90;;;;;;1917873;75;21529;-79
2021/09/15 01:01:17;;;;;;;7.03;4.20;;;20.10;99.90;;;;;;1917941;75;21479;-79
2021/09/15 01:03:43;;;;;;;5.47;4.67;;;20.00;99.90;;;;;;1917973;75;21062;-79
2021/09/15 01:06:09;;;;;;;7.25;4.87;;;20.00;99.90;;;;;;1917954;75;21035;-79
2021/09/15 01:08:35;;;;;;;8.50;4.60;;;20.10;99.90;;;;;;1917927;75;21128;-79
2021/09/15 01:11:01;;;;;;;5.25;4.60;;;20.10;99.90;;;;;;1918035;74;21062;-79
2021/09/15 01:13:27;;;;;;;5.70;4.90;;;20.10;99.90;;;;;;1917909;75;21133;-79
2021/09/15 01:15:53;;;;;;;5.97;4.72;;;20.00;99.90;;;;;;1918006;75;21035;-79
2021/09/15 01:18:20;;;;;;;5.58;4.15;;;19.90;99.90;;;;;;1917823;75;21139;-79
2021/09/15 01:20:46;;;;;;;9.78;4.12;;;19.90;99.90;;;;;;1918045;75;21062;-79
2021/09/15 01:23:12;;;;;;;4.78;4.33;;;20.00;99.90;;;;;;1917938;75;21093;-79
2021/09/15 01:25:38;;;;;;;7.25;4.80;;;19.90;99.90;;;;;;1917931;75;21035;-79
2021/09/15 01:28:04;;;;;;;6.08;4.47;;;19.90;99.90;;;;;;1917926;75;21066;-79
2021/09/15 01:30:30;;;;;;;5.72;4.28;;;19.80;99.90;;;;;;1918031;73;21131;-79
2021/09/15 01:32:56;;;;;;;6.65;4.35;;;19.70;99.90;;;;;;1918030;73;21183;-79
2021/09/15 01:35:22;;;;;;;7.80;4.87;;;19.70;99.90;;;;;;1918022;75;21066;-79
2021/09/15 01:37:49;;;;;;;7.45;4.95;;;19.60;99.90;;;;;;1917995;74;21139;-79
2021/09/15 01:40:15;;;;;;;8.33;5.03;;;19.60;99.90;;;;;;1918063;75;21135;-79
2021/09/15 01:42:41;;;;;;;5.33;4.85;;;19.60;99.90;;;;;;1918080;73;21060;-79
2021/09/15 01:45:07;;;;;;;6.92;4.92;;;19.60;99.90;;;;;;1917951;75;21109;-79
2021/09/15 01:47:33;;;;;;;7.20;4.75;;;19.60;99.90;;;;;;1918164;75;21064;-79
2021/09/15 01:49:59;;;;;;;5.20;4.70;;;19.60;99.90;;;;;;1917954;75;21059;-79
2021/09/15 01:52:25;;;;;;;7.50;4.72;;;19.60;99.90;;;;;;1918195;75;21062;-79
2021/09/15 01:54:52;;;;;;;6.12;4.90;;;19.50;99.90;;;;;;1918074;75;21129;-80
2021/09/15 01:57:18;;;;;;;5.08;4.58;;;19.50;99.90;;;;;;1918178;74;21130;-79
2021/09/15 01:59:44;;;;;;;5.45;4.37;;;19.50;99.90;;;;;;1918010;75;21070;-79
2021/09/15 02:02:13;;;;;;;4.92;4.35;;;19.60;99.90;;;;;;1918050;75;21062;-79
2021/09/15 02:04:39;;;;;;;5.53;4.37;;;19.60;99.90;;;;;;1918111;75;21062;-80
2021/09/15 02:07:05;;;;;;;6.15;4.62;;;19.60;99.90;;;;;;1918163;75;21051;-80
2021/09/15 02:09:31;;;;;;;6.70;4.50;;;19.70;99.90;;;;;;1918170;75;21050;-80
2021/09/15 02:11:57;;;;;;;6.47;4.40;;;19.70;99.90;;;;;;1918140;75;21095;-80
2021/09/15 02:14:24;;;;;;;6.35;4.40;;;19.70;99.90;;;;;;1918153;73;21036;-80
2021/09/15 02:16:50;;;;;;;5.15;4.35;;;19.70;99.90;;;;;;1918136;73;21111;-79
2021/09/15 02:19:17;;;;;;;6.37;4.95;;;19.70;99.90;;;;;;1918006;75;21654;-79
2021/09/15 02:21:43;;;;;;;8.53;4.47;;;19.70;99.90;;;;;;1918055;75;21521;-80
2021/09/15 02:24:09;;;;;;;5.92;4.55;;;19.70;99.90;;;;;;1918011;75;21443;-80
2021/09/15 02:26:35;;;;;;;4.60;4.12;;;19.50;99.90;;;;;;1918047;75;21066;-80
2021/09/15 02:29:01;;;;;;;5.90;4.60;;;19.60;99.90;;;;;;1918036;75;21140;-80
2021/09/15 02:31:27;;;;;;;5.05;4.37;;;19.60;99.90;;;;;;1918020;73;21105;-80
2021/09/15 02:33:53;;;;;;;9.73;4.12;;;19.60;99.90;;;;;;1918003;75;21031;-80
2021/09/15 02:36:19;;;;;;;8.88;4.12;;;19.60;99.90;;;;;;1918049;75;21141;-80
2021/09/15 02:38:45;;;;;;;7.92;4.35;;;19.50;99.90;;;;;;1918055;75;21066;-80
2021/09/15 02:41:12;;;;;;;4.80;3.77;;;19.60;99.90;;;;;;1918062;75;21066;-80
2021/09/15 02:43:38;;;;;;;6.10;4.40;;;19.40;99.90;;;;;;1918110;73;21039;-80
2021/09/15 02:46:04;;;;;;;6.50;4.85;;;19.40;99.90;;;;;;1918051;73;21062;-80
2021/09/15 02:48:30;;;;;;;6.33;4.30;;;19.30;99.90;;;;;;1918083;75;21141;-80
2021/09/15 02:50:56;;;;;;;5.22;4.25;;;19.40;99.90;;;;;;1918177;75;21184;-80
2021/09/15 02:53:22;;;;;;;8.88;4.87;;;19.50;99.90;;;;;;1918016;75;21007;-80
2021/09/15 02:55:48;;;;;;;6.15;4.30;;;19.50;99.90;;;;;;1918142;75;21062;-80
2021/09/15 02:58:14;;;;;;;5.78;4.33;;;19.50;99.90;;;;;;1918102;74;21128;-80
2021/09/15 03:00:41;;;;;;;8.63;4.60;;;19.40;99.90;;;;;;1918151;75;21066;-80
2021/09/15 03:03:07;;;;;;;7.58;4.65;;;19.50;99.90;;;;;;1918170;75;21083;-80
2021/09/15 03:05:33;;;;;;;4.72;4.00;;;19.40;99.90;;;;;;1918174;75;21091;-80
2021/09/15 03:07:59;;;;;;;13.62;4.20;;;19.40;99.90;;;;;;1918163;75;21466;-80
2021/09/15 03:10:25;;;;;;;4.53;3.90;;;19.40;99.90;;;;;;1918143;75;21477;-80
2021/09/15 03:12:51;;;;;;;5.67;4.05;;;19.50;99.90;;;;;;1918004;75;21604;-79
2021/09/15 03:15:18;;;;;;;4.33;3.72;;;19.40;99.90;;;;;;1918013;75;21506;-79
2021/09/15 03:17:44;;;;;;;8.35;4.20;;;19.40;99.90;;;;;;1918053;75;21139;-79
2021/09/15 03:20:10;;;;;;;5.75;3.95;;;19.30;99.90;;;;;;1917981;74;21078;-80
2021/09/15 03:22:36;;;;;;;20.23;4.45;;;19.40;99.90;;;;;;1918180;74;21128;-79
2021/09/15 03:25:02;;;;;;;5.37;3.80;;;19.30;99.90;;;;;;1918399;75;21062;-78
2021/09/15 03:27:28;;;;;;;7.78;3.75;;;19.30;99.90;;;;;;1918461;75;21058;-79
2021/09/15 03:29:54;;;;;;;5.37;3.85;;;19.40;99.90;;;;;;1918618;75;21062;-79
2021/09/15 03:32:20;;;;;;;9.55;3.95;;;19.40;99.90;;;;;;1918843;75;21140;-79
2021/09/15 03:34:46;;;;;;;6.60;4.10;;;19.40;99.90;;;;;;1920279;75;21018;-79
2021/09/15 03:37:13;;;;;;;5.10;3.80;;;19.40;99.90;;;;;;1920091;75;21034;-80
2021/09/15 03:39:39;;;;;;;6.95;4.17;;;19.40;99.90;;;;;;1918654;75;21066;-80
2021/09/15 03:42:05;;;;;;;9.58;3.92;;;19.40;99.90;;;;;;1918261;75;21065;-80
2021/09/15 03:44:32;;;;;;;4.05;3.65;;;19.40;99.90;;;;;;1918245;75;21063;-80
2021/09/15 03:46:58;;;;;;;4.08;3.62;;;19.30;99.90;;;;;;1918042;75;21493;-80
2021/09/15 03:49:24;;;;;;;6.53;4.05;;;19.30;99.90;;;;;;1918058;75;21497;-80
2021/09/15 03:51:51;;;;;;;4.83;4.33;;;19.30;99.90;;;;;;1918162;75;21493;-80
2021/09/15 03:54:17;;;;;;;4.42;3.98;;;19.20;99.90;;;;;;1918038;74;21071;-80
2021/09/15 03:56:43;;;;;;;5.97;4.12;;;19.30;99.90;;;;;;1918005;73;21175;-80
2021/09/15 03:59:09;;;;;;;6.25;4.12;;;19.30;99.90;;;;;;1917987;73;21136;-80
2021/09/15 04:01:35;;;;;;;5.30;4.80;;;19.30;99.90;;;;;;1918016;75;21140;-80
2021/09/15 04:04:01;;;;;;;9.05;4.78;;;19.20;99.90;;;;;;1918000;75;21128;-81
2021/09/15 04:06:27;;;;;;;8.70;5.22;;;19.20;99.90;;;;;;1918030;75;21117;-81
2021/09/15 04:08:53;;;;;;;7.62;4.67;;;19.20;99.90;;;;;;1918035;75;21153;-80
2021/09/15 04:11:19;;;;;;;4.90;4.37;;;19.20;99.90;;;;;;1917999;75;21062;-80
2021/09/15 04:13:46;;;;;;;5.58;4.75;;;19.10;99.90;;;;;;1917977;75;21035;-80
2021/09/15 04:16:12;;;;;;;5.22;4.72;;;19.00;99.90;;;;;;1918006;75;21136;-80
2021/09/15 04:18:38;;;;;;;8.58;4.22;;;19.00;99.90;;;;;;1917997;73;21074;-81
2021/09/15 04:21:04;;;;;;;5.33;4.83;;;19.00;99.90;;;;;;1918108;75;21062;-80
2021/09/15 04:23:48;;;;;;;6.35;4.30;;;19.10;99.90;;;;;;1918098;75;21039;-80
2021/09/15 04:31:22;;;;;;;9.18;4.40;;;19.00;99.90;;;;;;1918114;75;21466;-80
2021/09/15 04:33:46;;;;;;;5.90;4.75;;;19.10;99.90;;;;;;1918466;73;21136;-80
2021/09/15 04:36:12;;;;;;;8.25;5.67;;;19.10;99.90;;;;;;1918018;75;21148;-80
2021/09/15 04:38:39;;;;;;;5.90;4.55;;;19.00;99.90;;;;;;1917994;75;21066;-81
2021/09/15 04:41:05;;;;;;;8.73;4.67;;;19.00;99.90;;;;;;1918003;75;21062;-79
2021/09/15 04:43:31;;;;;;;11.33;5.25;;;19.00;99.90;;;;;;1918128;75;21149;-80
2021/09/15 04:45:57;;;;;;;5.28;4.78;;;19.10;99.90;;;;;;1917939;74;21039;-80
2021/09/15 04:48:23;;;;;;;42.75;5.72;;;19.00;99.90;;;;;;1918109;75;21050;-81
2021/09/15 04:50:49;;;;;;;6.08;5.45;;;19.00;99.90;;;;;;1917936;75;21140;-80
2021/09/15 04:53:15;;;;;;;8.98;5.97;;;18.90;99.90;;;;;;1918096;75;21039;-80
2021/09/15 04:55:41;;;;;;;11.10;5.75;;;18.90;99.90;;;;;;1918077;75;21046;-80
2021/09/15 04:58:08;;;;;;;6.95;4.92;;;19.00;99.90;;;;;;1918000;75;21118;-80
2021/09/15 05:00:34;;;;;;;6.75;5.45;;;18.90;99.90;;;;;;1917904;75;21470;-80
2021/09/15 05:03:00;;;;;;;8.08;4.87;;;19.00;99.90;;;;;;1918155;75;21466;-80
2021/09/15 05:05:26;;;;;;;7.20;5.60;;;19.10;99.90;;;;;;1918154;75;21443;-80
2021/09/15 05:07:52;;;;;;;5.60;5.10;;;19.10;99.90;;;;;;1917905;75;21489;-81
2021/09/15 05:10:24;;;;;;;7.80;5.33;;;19.10;99.90;;;;;;1917976;75;21443;-81
2021/09/15 05:12:46;;;;;;;11.43;5.50;;;19.20;99.90;;;;;;1919078;73;21094;-81
2021/09/15 05:15:12;;;;;;;5.67;5.12;;;19.10;99.90;;;;;;1917962;73;21062;-81
2021/09/15 05:17:38;;;;;;;6.78;5.08;;;19.00;99.90;;;;;;1918087;75;21114;-82
2021/09/15 05:20:04;;;;;;;5.58;5.05;;;19.10;99.90;;;;;;1918239;75;21040;-81
2021/09/15 05:22:30;;;;;;;7.50;5.60;;;19.10;99.90;;;;;;1918179;75;21063;-82
2021/09/15 05:24:57;;;;;;;9.13;6.10;;;19.00;99.90;;;;;;1918153;75;21070;-81
2021/09/15 05:27:23;;;;;;;5.10;4.60;;;19.10;99.90;;;;;;1918137;75;21144;-79
2021/09/15 05:29:49;;;;;;;9.38;5.50;;;19.20;99.90;;;;;;1918255;75;21048;-80
2021/09/15 05:32:15;;;;;;;6.90;6.20;;;19.10;99.90;;;;;;1918012;75;21043;-81
2021/09/15 05:34:41;;;;;;;13.22;6.12;;;19.10;99.90;;;;;;1918179;74;21067;-81
2021/09/15 05:37:08;;;;;;;7.50;5.03;;;19.00;99.90;;;;;;1918057;75;21179;-83
2021/09/15 05:39:34;;;;;;;5.65;5.08;;;19.00;99.90;;;;;;1918203;75;21070;-81
2021/09/15 05:42:00;;;;;;;11.85;5.67;;;19.00;99.90;;;;;;1918042;75;21054;-77
2021/09/15 05:44:26;;;;;;;9.95;5.30;;;19.10;99.90;;;;;;1918143;75;21128;-80
2021/09/15 05:46:52;;;;;;;4.80;4.40;;;19.10;99.90;;;;;;1918241;75;21070;-80
2021/09/15 05:49:18;;;;;;;6.42;5.05;;;19.20;99.90;;;;;;1919066;75;21095;-80
2021/09/15 05:51:44;;;;;;;6.85;5.42;;;19.30;99.90;;;;;;1918309;75;21083;-80
2021/09/15 05:54:10;;;;;;;7.75;5.12;;;19.30;99.90;;;;;;1918292;73;21099;-80
2021/09/15 05:56:38;;;;;;;5.42;4.58;;;19.40;99.90;;;;;;1918259;75;21095;-81
2021/09/15 05:59:04;;;;;;;9.43;5.92;;;19.40;99.90;;;;;;1918079;75;21136;-79
2021/09/15 06:01:30;;;;;;;7.03;4.75;;;19.50;99.90;;;;;;1918093;75;21058;-79
2021/09/15 06:03:56;;;;;;;7.45;5.58;;;19.50;99.90;;;;;;1918018;75;21063;-79
2021/09/15 06:06:23;;;;;;;8.28;5.28;;;19.40;99.90;;;;;;1918134;75;21074;-79
2021/09/15 06:08:49;;;;;;;6.72;5.53;;;19.50;99.90;;;;;;1918041;75;21141;-79
2021/09/15 06:11:15;;;;;;;7.75;5.10;;;19.60;99.90;;;;;;1918122;75;21062;-79
2021/09/15 06:13:41;;;;;;;10.10;5.83;;;19.60;99.90;;;;;;1918296;75;21148;-80
2021/09/15 06:16:08;;;;;;;9.68;5.87;;;19.50;99.90;;;;;;1918461;75;21171;-81
2021/09/15 06:18:34;;;;;;;7.37;5.42;;;19.50;99.90;;;;;;1918156;74;21034;-81
2021/09/15 06:21:00;;;;;;;8.63;5.70;;;19.60;99.90;;;;;;1918060;75;21156;-80
2021/09/15 06:23:26;;;;;;;8.08;5.75;;;19.60;99.90;;;;;;1917916;73;21035;-80
2021/09/15 06:25:52;;;;;;;7.87;6.15;;;19.60;99.90;;;;;;1918140;75;21074;-78
2021/09/15 06:28:18;;;;;;;7.87;6.58;;;19.50;99.90;;;;;;1917887;75;21113;-81
2021/09/15 06:30:44;;;;;;;10.32;5.90;;;19.40;99.90;;;;;;1918117;75;21062;-80
2021/09/15 06:33:10;;;;;;;5.80;5.20;;;19.50;99.90;;;;;;1917957;75;21035;-78
2021/09/15 06:35:36;;;;;;;6.85;5.00;;;19.60;99.90;;;;;;1918068;75;21066;-78
2021/09/15 06:38:03;;;;;;;6.78;5.25;;;19.60;99.90;;;;;;1918195;75;21083;-78
2021/09/15 06:40:29;;;;;;;8.50;5.30;;;19.60;99.90;;;;;;1918190;75;21135;-79
2021/09/15 06:42:55;;;;;;;9.35;5.10;;;19.70;99.90;;;;;;1918254;75;21083;-78
2021/09/15 06:45:21;;;;;;;14.73;4.60;;;19.60;99.90;;;;;;1918281;75;21164;-77
2021/09/15 06:47:47;;;;;;;4.92;4.53;;;19.60;99.90;;;;;;1918335;75;21087;-77
2021/09/15 06:50:13;;;;;;;7.20;4.72;;;19.70;99.90;;;;;;1918260;75;21165;-77
2021/09/15 06:52:39;;;;;;;8.28;5.15;;;19.60;99.90;;;;;;1917959;75;21154;-78
2021/09/15 06:55:05;;;;;;;6.95;4.80;;;19.60;99.90;;;;;;1918146;75;21074;-80
2021/09/15 06:57:32;;;;;;;5.90;4.60;;;19.40;99.90;;;;;;1917929;75;21067;-80
2021/09/15 06:59:58;;;;;;;6.50;5.12;;;19.60;99.90;;;;;;1918110;75;21140;-81
2021/09/15 07:02:25;;;;;;;5.25;4.70;;;19.60;99.90;;;;;;1917954;75;21096;-80
2021/09/15 07:04:51;;;;;;;8.20;4.97;;;19.70;99.90;;;;;;1918145;75;21074;-78
2021/09/15 07:07:17;;;;;;;5.25;4.28;;;19.70;99.90;;;;;;1918005;75;21070;-81
2021/09/15 07:09:43;;;;;;;5.42;4.58;;;19.60;99.90;;;;;;1918146;75;21063;-79
2021/09/15 07:12:09;;;;;;;6.45;4.17;;;19.60;99.90;;;;;;1918074;75;21036;-80
2021/09/15 07:14:35;;;;;;;4.85;3.87;;;19.60;99.90;;;;;;1918088;75;21140;-80
2021/09/15 07:17:02;;;;;;;8.80;4.72;;;19.60;99.90;;;;;;1918197;75;21121;-79
2021/09/15 07:19:28;;;;;;;7.47;4.65;;;19.50;99.90;;;;;;1918252;73;21062;-78
2021/09/15 07:21:54;;;;;;;6.72;4.20;;;19.50;99.90;;;;;;1918135;73;21007;-78
2021/09/15 07:24:20;;;;;;;12.15;4.53;;;19.60;99.90;;;;;;1918198;75;21059;-77
2021/09/15 07:26:46;;;;;;;8.63;4.28;;;19.70;99.90;;;;;;1918099;75;21078;-78
2021/09/15 07:29:12;;;;;;;6.78;4.45;;;19.70;99.90;;;;;;1918056;73;21482;-78
2021/09/15 07:31:38;;;;;;;4.65;3.95;;;19.80;99.90;;;;;;1918109;75;21512;-78
2021/09/15 07:34:05;;;;;;;6.67;4.72;;;19.80;99.90;;;;;;1918138;73;21496;-78
2021/09/15 07:36:31;;;;;;;11.57;3.62;;;20.00;99.90;;;;;;1918188;73;21031;-78
2021/09/15 07:38:57;;;;;;;5.42;4.28;;;20.10;99.90;;;;;;1917911;75;21063;-77
2021/09/15 07:41:23;;;;;;;7.53;3.72;;;20.20;99.90;;;;;;1918253;75;21066;-78
2021/09/15 07:43:49;;;;;;;4.62;4.03;;;20.40;99.90;;;;;;1918378;75;21168;-79
2021/09/15 07:46:15;;;;;;;6.35;4.25;;;20.40;99.90;;;;;;1918362;75;21090;-80
2021/09/15 07:48:41;;;;;;;4.65;3.67;;;20.40;99.90;;;;;;1920257;72;21148;-74
2021/09/15 07:51:08;;;;;;;4.17;3.80;;;20.60;99.90;;;;;;1919410;75;21152;-74
2021/09/15 07:53:34;;;;;;;6.30;4.33;;;20.80;99.90;;;;;;1919997;74;21015;-79
2021/09/15 07:56:00;;;;;;;6.17;4.53;;;20.80;99.90;;;;;;1921022;75;21039;-77
2021/09/15 07:58:26;;;;;;;6.60;4.42;;;20.80;99.90;;;;;;1918547;75;21023;-79
2021/09/15 08:00:52;;;;;;;5.47;4.30;;;20.60;99.90;;;;;;1918259;75;21136;-79
2021/09/15 08:03:18;;;;;;;6.08;4.10;;;20.70;99.90;;;;;;1918074;75;21097;-82
2021/09/15 08:05:44;;;;;;;4.60;3.75;;;20.60;99.90;;;;;;1918272;75;21026;-81
2021/09/15 08:08:12;;;;;;;7.42;4.33;;;20.40;99.90;;;;;;1918302;75;21128;-85
2021/09/15 08:10:40;;;;;;;7.33;3.75;;;20.40;99.90;;;;;;1918576;73;21043;-78
2021/09/15 08:13:06;;;;;;;5.03;4.10;;;20.30;99.90;;;;;;1918669;75;21015;-79
2021/09/15 08:15:32;;;;;;;4.62;4.08;;;20.30;99.90;;;;;;1918542;75;21143;-79
2021/09/15 08:17:59;;;;;;;10.63;4.80;;;20.40;99.90;;;;;;1918576;75;21050;-81
2021/09/15 08:20:26;;;;;;;6.87;4.33;;;20.30;99.90;;;;;;1918529;75;21043;-78
2021/09/15 08:22:52;;;;;;;8.23;4.45;;;20.20;99.90;;;;;;1918559;75;21470;-79
2021/09/15 08:25:18;;;;;;;9.00;5.12;;;20.30;99.90;;;;;;1918720;75;21038;-84
2021/09/15 08:27:44;;;;;;;5.45;4.03;;;20.30;99.90;;;;;;1918759;75;21066;-84
2021/09/15 08:30:10;;;;;;;4.90;4.42;;;20.30;99.90;;;;;;1918852;75;21054;-86
2021/09/15 08:32:36;;;;;;;5.20;3.75;;;20.30;99.90;;;;;;1918657;75;21032;-84
2021/09/15 08:35:03;;;;;;;7.03;4.45;;;20.30;99.90;;;;;;1918918;75;21011;-84
2021/09/15 08:37:29;;;;;;;11.60;4.42;;;20.40;99.90;;;;;;1918596;75;21094;-84
2021/09/15 08:39:55;;;;;;;11.63;4.47;;;20.30;99.90;;;;;;1918818;75;21144;-85
2021/09/15 08:42:21;;;;;;;5.78;4.42;;;20.20;99.90;;;;;;1918146;74;21145;-77
2021/09/15 08:44:47;;;;;;;6.53;4.53;;;20.10;99.90;;;;;;1918280;75;21082;-78
2021/09/15 08:47:13;;;;;;;10.28;5.10;;;20.10;99.90;;;;;;1918178;75;21071;-78
2021/09/15 08:49:39;;;;;;;6.30;4.83;;;20.10;99.90;;;;;;1918199;75;21574;-78
2021/09/15 08:52:05;;;;;;;5.95;4.00;;;20.00;99.90;;;;;;1918366;75;21443;-78
2021/09/15 08:54:31;;;;;;;5.15;4.15;;;20.00;99.90;;;;;;1918307;75;21504;-77
2021/09/15 08:56:58;;;;;;;3.67;3.30;;;20.00;99.90;;;;;;1918361;75;21575;-78
2021/09/15 08:59:24;;;;;;;6.75;3.35;;;19.90;99.90;;;;;;1918410;73;21571;-79
2021/09/15 09:01:50;;;;;;;5.25;4.33;;;19.80;99.90;;;;;;1918708;75;21443;-79
2021/09/15 09:04:16;;;;;;;6.20;4.55;;;19.70;99.90;;;;;;1918738;75;21580;-78
2021/09/15 09:06:42;;;;;;;8.33;3.33;;;19.80;99.90;;;;;;1935976;73;21055;-80
2021/09/15 09:09:08;;;;;;;5.70;3.83;;;19.70;99.90;;;;;;1952567;73;21070;-78
2021/09/15 09:11:34;;;;;;;12.18;5.35;;;19.70;99.90;;;;;;1952422;73;21008;-80
2021/09/15 09:14:02;;;;;;;4.85;3.65;;;19.60;99.90;;;;;;1952843;73;21040;-81
2021/09/15 09:16:28;;;;;;;5.45;3.72;;;19.60;99.90;;;;;;1952945;73;21144;-81
2021/09/15 09:18:54;;;;;;;4.80;3.95;;;19.70;99.90;;;;;;1952866;73;21124;-79
2021/09/15 09:21:20;;;;;;;12.07;4.78;;;19.60;99.90;;;;;;1952731;73;21079;-79
2021/09/15 09:23:46;;;;;;;4.83;3.30;;;19.60;99.90;;;;;;1952918;73;21071;-85
2021/09/15 09:26:12;;;;;;;6.37;3.90;;;19.60;99.90;;;;;;1952884;73;21059;-80
2021/09/15 09:28:44;;;;;;;4.60;3.33;;;19.60;99.90;;;;;;1952615;73;21071;-77
2021/09/15 09:31:06;;;;;;;5.35;3.60;;;19.60;99.90;;;;;;1913915;75;21071;-79
2021/09/15 09:33:33;;;;;;;5.33;3.05;;;19.60;99.90;;;;;;1952193;73;21040;-80
2021/09/15 09:36:01;;;;;;;3.52;2.87;;;19.50;99.90;;;;;;1952149;73;21576;-79
2021/09/15 09:38:27;;;;;;;6.25;3.75;;;19.60;99.90;;;;;;1952174;73;21071;-82
2021/09/15 09:40:53;;;;;;;5.55;3.02;;;19.50;99.90;;;;;;1952343;73;21478;-87
2021/09/15 09:43:21;;;;;;;5.60;2.87;;;19.50;99.90;;;;;;1952328;72;21055;-89
2021/09/15 09:45:47;;;;;;;5.72;3.10;;;19.50;99.90;;;;;;1952934;73;21067;-89
2021/09/15 09:48:13;;;;;;;5.95;2.90;;;19.60;99.90;;;;;;1952360;73;21007;-85
2021/09/15 09:50:40;;;;;;;3.50;2.70;;;19.60;99.90;;;;;;1952440;72;21062;-86
2021/09/15 09:53:09;;;;;;;4.10;2.83;;;19.60;99.90;;;;;;1952734;73;21164;-78
2021/09/15 09:55:35;;;;;;;6.25;3.17;;;19.60;99.90;;;;;;1952089;73;21063;-75
2021/09/15 09:58:03;;;;;;;4.90;2.75;;;19.50;99.90;;;;;;1952255;73;21074;-77
2021/09/15 10:00:29;;;;;;;4.37;2.77;;;19.40;99.90;;;;;;1952094;73;21224;-88
2021/09/15 10:02:55;;;;;;;6.03;2.47;;;19.50;99.90;;;;;;1952297;73;21434;-83
2021/09/15 10:05:21;;;;;;;6.45;2.83;;;19.50;99.90;;;;;;1952402;72;21474;-84
2021/09/15 10:07:47;;;;;;;3.52;2.72;;;19.60;99.90;;;;;;1952349;73;21548;-86
2021/09/15 10:10:14;;;;;;;5.03;3.00;;;19.60;99.90;;;;;;1952460;73;21447;-85
2021/09/15 10:12:41;;;;;;;6.12;3.20;;;19.90;99.90;;;;;;1952530;73;21075;-84
2021/09/15 10:15:07;;;;;;;6.62;2.90;;;20.10;99.90;;;;;;1952498;72;21483;-85
2021/09/15 10:17:33;;;;;;;9.58;2.80;;;20.40;99.90;;;;;;1952277;73;21551;-85
2021/09/15 10:19:59;;;;;;;6.85;2.60;;;20.50;99.90;;;;;;1952354;73;21478;-87
2021/09/15 10:22:28;;;;;;;6.87;2.52;;;20.40;99.90;;;;;;1952293;73;21435;-87
2021/09/15 10:24:55;;;;;;;2.80;2.40;;;20.50;99.90;;;;;;1916862;74;21063;-85
2021/09/15 10:27:23;;;;;;;4.83;2.75;;;20.60;99.90;;;;;;1952551;73;21071;-87
2021/09/15 10:29:49;;;;;;;5.62;2.92;;;20.60;99.90;;;;;;1952506;73;21133;-87
2021/09/15 10:32:15;;;;;;;5.00;2.80;;;20.70;99.90;;;;;;1952482;73;21063;-87
2021/09/15 10:34:41;;;;;;;5.00;2.67;;;20.90;99.90;;;;;;1952309;73;21128;-85
2021/09/15 10:37:09;;;;;;;3.17;2.65;;;21.10;99.90;;;;;;1952186;72;21070;-87
2021/09/15 10:39:35;;;;;;;6.42;2.67;;;20.90;99.90;;;;;;1952245;73;21039;-87
2021/09/15 10:42:04;;;;;;;5.85;2.70;;;20.80;99.90;;;;;;1952311;73;21102;-86
2021/09/15 10:44:29;;;;;;;4.17;3.00;;;20.60;99.90;;;;;;1951703;73;21507;-86
2021/09/15 10:46:55;;;;;;;2.67;2.47;;;20.50;99.90;;;;;;1952203;72;21529;-84
2021/09/15 10:49:25;;;;;;;4.58;2.50;;;20.50;99.90;;;;;;1952051;72;21436;-85
2021/09/15 10:51:53;;;;;;;7.10;2.85;;;20.60;99.90;;;;;;1915295;75;21083;-84
2021/09/15 10:54:19;;;;;;;6.20;3.02;;;20.70;99.90;;;;;;1951618;73;21066;-84
2021/09/15 10:56:44;;;;;;;5.33;2.95;;;20.70;99.90;;;;;;1916353;75;21128;-84
2021/09/15 10:59:11;;;;;;;3.77;2.50;;;20.70;99.90;;;;;;1952270;73;21118;-84
2021/09/15 11:01:37;;;;;;;6.12;3.37;;;20.70;99.90;;;;;;1952157;73;21043;-84
2021/09/15 11:04:04;;;;;;;5.53;2.70;;;20.80;99.90;;;;;;1952670;73;21129;-83
2021/09/15 11:06:30;;;;;;;3.85;2.52;;;20.80;99.90;;;;;;1952924;73;21588;-84
2021/09/15 11:08:58;;;;;;;4.72;2.42;;;20.90;99.90;;;;;;1952349;73;21157;-83
2021/09/15 11:11:25;;;;;;;2.47;2.27;;;21.00;99.90;;;;;;1952820;73;21075;-84
2021/09/15 11:13:53;;;;;;;4.17;2.75;;;21.20;99.90;;;;;;1953131;73;21122;-85
2021/09/15 11:16:28;;;;;;;6.53;2.98;;;21.30;99.90;;;;;;1917175;74;21459;-84
2021/09/15 11:18:46;;;;;;;3.85;2.75;;;21.60;99.90;;;;;;1947926;73;21047;-84
2021/09/15 11:21:19;;;;;;;6.25;3.20;;;21.50;99.90;;;;;;1952730;72;21066;-84
2021/09/15 11:23:40;;;;;;;5.30;2.45;;;21.60;99.90;;;;;;1915664;74;21126;-84
2021/09/15 11:26:07;;;;;;;5.47;2.70;;;21.70;99.90;;;;;;1952754;73;21075;-85
2021/09/15 11:28:33;;;;;;;3.95;2.60;;;21.60;99.90;;;;;;1952921;73;21035;-83
2021/09/15 11:30:59;;;;;;;2.40;2.20;;;21.60;99.90;;;;;;1952807;72;21155;-83
2021/09/15 11:33:25;;;;;;;3.27;2.47;;;21.60;99.90;;;;;;1929342;73;21124;-83
2021/09/15 11:35:52;;;;;;;6.65;2.98;;;21.40;99.90;;;;;;1952874;73;21124;-81
2021/09/15 11:38:18;;;;;;;10.45;2.80;;;21.40;99.90;;;;;;1952884;73;21028;-83
2021/09/15 11:40:45;;;;;;;6.12;2.72;;;21.30;99.90;;;;;;1952666;73;21040;-82
2021/09/15 11:43:14;;;;;;;4.42;2.45;;;21.20;99.90;;;;;;1952750;73;21201;-84
2021/09/15 11:45:42;;;;;;;5.25;2.62;;;21.20;99.90;;;;;;1929216;73;21172;-83
2021/09/15 11:48:10;;;;;;;4.08;2.85;;;21.20;99.90;;;;;;1952889;73;21078;-84
2021/09/15 11:50:36;;;;;;;5.60;2.58;;;21.20;99.90;;;;;;1917665;73;21107;-84
2021/09/15 11:53:05;;;;;;;2.77;2.15;;;21.30;99.90;;;;;;1953456;72;21149;-84
2021/09/15 11:55:31;;;;;;;6.85;2.70;;;21.40;99.90;;;;;;1917350;75;21052;-84
2021/09/15 11:58:01;;;;;;;5.60;2.70;;;21.40;99.90;;;;;;1953190;73;21103;-83
2021/09/15 12:00:25;;;;;;;5.70;2.72;;;21.40;99.90;;;;;;1916268;73;21160;-84
2021/09/15 12:02:54;;;;;;;5.80;2.62;;;21.40;99.90;;;;;;1952797;73;21095;-84
2021/09/15 12:05:20;;;;;;;3.25;2.40;;;21.50;99.90;;;;;;1917234;74;21175;-83
2021/09/15 12:07:47;;;;;;;6.75;2.95;;;21.60;99.90;;;;;;1952693;73;21082;-83
2021/09/15 12:10:13;;;;;;;5.05;2.60;;;21.50;99.90;;;;;;1952926;73;21067;-83
2021/09/15 12:12:39;;;;;;;4.12;2.80;;;21.60;99.90;;;;;;1929224;73;21024;-84
2021/09/15 12:15:06;;;;;;;3.37;2.52;;;21.40;99.90;;;;;;1952614;73;21103;-84
2021/09/15 12:17:32;;;;;;;4.62;2.40;;;21.50;99.90;;;;;;1952256;73;21120;-84
2021/09/15 12:19:59;;;;;;;2.55;2.35;;;21.50;99.90;;;;;;1952571;73;21062;-84
2021/09/15 12:22:31;;;;;;;7.08;2.50;;;21.60;99.90;;;;;;1952117;72;21039;-84
2021/09/15 12:24:53;;;;;;;4.12;2.67;;;21.60;99.90;;;;;;1915116;74;21471;-84
2021/09/15 12:27:20;;;;;;;4.35;2.58;;;21.60;99.90;;;;;;1952253;73;21067;-84
2021/09/15 12:29:46;;;;;;;3.20;2.37;;;21.70;99.90;;;;;;1952094;72;21054;-83
2021/09/15 12:32:13;;;;;;;4.85;2.42;;;21.70;99.90;;;;;;1952203;73;21055;-83
2021/09/15 12:34:39;;;;;;;2.90;2.42;;;21.70;99.90;;;;;;1951965;73;21028;-83
2021/09/15 12:37:05;;;;;;;5.28;2.60;;;21.80;99.90;;;;;;1952335;73;21137;-84
2021/09/15 12:39:31;;;;;;;5.15;2.30;;;21.90;99.90;;;;;;1952315;72;21176;-84
2021/09/15 12:41:57;;;;;;;3.75;2.22;;;22.10;99.90;;;;;;1952335;73;21117;-84
2021/09/15 12:44:26;;;;;;;4.20;2.50;;;22.10;99.90;;;;;;1952367;72;21032;-85